• Join FlightAware (Why Join?)
  • Login
  • US Flag 
08:26PM EDT


 

Airport Tracker/Info


-or-


 

Live Flight TrackerFlight Track Log ✈ C-GAWM ✈ 01-Nov-2013 ✈ CZJN - CYWG

Flight Track Log - Related Links

Times and Time Zones

All times are in EDT time to prevent confusion due to time zone crossing. See the C-GAWM flight status page for this flight to view local times or setup timezone preferences in your user account.

Time Position Orientation Groundspeed Altitude Reporting Facility
EDT Latitude Longitude Course Direction KTS MPH feet Rate Location/Type
04:19PM 51.6667 -100.5000 137° Southeast 190 219 9,000  Level Winnipeg Center
04:20PM 51.6333 -100.4500 137° Southeast 190 219 9,000  Level Winnipeg Center
04:21PM 51.6000 -100.3667 123° Southeast 190 219 9,000  Level Winnipeg Center
04:22PM 51.5667 -100.3000 129° Southeast 190 219 9,000  Level Winnipeg Center
04:23PM 51.5333 -100.2500 137° Southeast 190 219 9,000  Level Winnipeg Center
04:24PM 51.5167 -100.1667 108° East 190 219 9,000  Level Winnipeg Center
04:25PM 51.9233 -100.8526 137° Southeast  Level Estimated
04:25PM 51.4833 -100.1167 137° Southeast 190 219 9,000  Level Winnipeg Center
04:26PM 51.4500 -100.0333 123° Southeast 190 219 9,000  Level Winnipeg Center
04:27PM 51.4000 -99.9667 140° Southeast 190 219 9,100  Climbing Winnipeg Center
04:28PM 51.3667 -99.9167 137° Southeast 190 219 9,000  Descending Winnipeg Center
04:29PM 51.3333 -99.8333 123° Southeast 190 219 9,100  Climbing Winnipeg Center
04:30PM 51.2833 -99.7833 148° Southeast 190 219 9,100  Level Winnipeg Center
04:31PM 51.2500 -99.7167 129° Southeast 200 230 9,100  Level Winnipeg Center
04:32PM 51.2167 -99.6667 137° Southeast 190 219 9,100 -60 Level Winnipeg Center
04:33PM 51.1833 -99.5833 123° Southeast 190 219 9,000 -60 Descending Winnipeg Center
04:34PM 51.1500 -99.5333 137° Southeast 190 219 9,000  Level Winnipeg Center
04:35PM 51.1167 -99.4500 122° Southeast 200 230 9,100  Climbing Winnipeg Center
04:36PM 51.1000 -99.3833 112° Southeast 190 219 9,100 -60 Level Winnipeg Center
04:37PM 51.0500 -99.3000 134° Southeast 190 219 9,000  Descending Winnipeg Center
04:38PM 51.0167 -99.2500 137° Southeast 190 219 9,100  Climbing Winnipeg Center
04:39PM 50.9833 -99.2000 137° Southeast 190 219 9,000  Descending Winnipeg Center
04:40PM 50.9500 -99.1167 122° Southeast 190 219 9,100  Climbing Winnipeg Center
04:41PM 50.9167 -99.0667 137° Southeast 190 219 9,100  Level Winnipeg Center
04:42PM 50.8833 -99.0000 128° Southeast 190 219 9,100  Level Winnipeg Center
04:43PM 50.8500 -98.9333 128° Southeast 190 219 9,100  Level Winnipeg Center
04:44PM 50.8167 -98.8667 128° Southeast 190 219 9,100  Level Winnipeg Center
04:45PM 50.7833 -98.8000 128° Southeast 190 219 9,100  Level Winnipeg Center
04:46PM 50.7500 -98.7333 128° Southeast 190 219 9,100  Level Winnipeg Center
04:47PM 50.7000 -98.6833 148° Southeast 190 219 9,100  Level Winnipeg Center
04:48PM 50.6667 -98.6000 122° Southeast 190 219 9,100  Level Winnipeg Center
04:49PM 50.6333 -98.5500 136° Southeast 190 219 9,100 -60 Level Winnipeg Center
04:50PM 50.6000 -98.5000 136° Southeast 190 219 9,000 -60 Descending Winnipeg Center
04:51PM 50.5667 -98.4167 122° Southeast 190 219 9,000  Level Winnipeg Center
04:52PM 50.5333 -98.3667 136° Southeast 190 219 9,000  Level Winnipeg Center
04:53PM 50.5000 -98.3000 128° Southeast 190 219 9,000  Level Winnipeg Center
04:54PM 50.4500 -98.2333 140° Southeast 190 219 9,000  Level Winnipeg Center
04:55PM 50.4500 -98.1667 90° East 190 219 9,000  Level Winnipeg Center
04:56PM 50.4000 -98.1000 140° Southeast 190 219 9,000  Level Winnipeg Center
04:57PM 50.3667 -98.0333 128° Southeast 190 219 9,000  Level Winnipeg Center
04:58PM 50.3333 -97.9833 136° Southeast 190 219 9,000 -180 Level Winnipeg Center
04:59PM 50.3000 -97.9333 136° Southeast 190 219 8,700 -420 Descending Winnipeg Center
05:00PM 50.2500 -97.8833 147° Southeast 200 230 8,200 -540 Descending Winnipeg Center
05:01PM 50.2000 -97.8333 147° Southeast 200 230 7,700 -540 Descending Winnipeg Center
05:02PM 50.1500 -97.8000 157° South 200 230 7,200 -540 Descending Winnipeg Center
05:03PM 50.1000 -97.7500 147° Southeast 200 230 6,700 -540 Descending Winnipeg Center
05:04PM 50.0667 -97.7000 136° Southeast 200 230 6,200 -540 Descending Winnipeg Center
05:05PM 50.0167 -97.6667 157° South 200 230 5,700 -540 Descending Winnipeg Center
05:06PM 49.9667 -97.6167 147° Southeast 190 219 5,200 -480 Descending Winnipeg Center
05:07PM 49.9167 -97.5667 147° Southeast 190 219 4,800 -480 Descending Winnipeg Center
05:08PM 49.8833 -97.5333 147° Southeast 190 219 4,300 -600 Descending Winnipeg Center
05:09PM 49.8333 -97.4833 147° Southeast 180 207 3,700 -600 Descending Winnipeg Center
05:10PM 49.8000 -97.4333 136° Southeast 190 219 3,100 -360 Descending Winnipeg Center
05:11PM 49.7500 -97.4000 157° South 170 196 3,000 -60 Descending Winnipeg Center
05:12PM 49.7333 -97.3500 117° Southeast 160 184 3,000  Level Winnipeg Center
05:13PM 49.7333 -97.2833 90° East 140 161 3,000  Level Winnipeg Center
05:14PM 49.7667 -97.2500 33° Northeast 130 150 3,000 -420 Level Winnipeg Center
05:15PM 49.8167 -97.2500 360° North 150 173 2,200 -840 Descending Winnipeg Center
05:16PM 49.8500 -97.2500 360° North 140 161 1,400 -780 Descending Winnipeg Center
05:17PM 49.8833 -97.2333 18° North 110 127 700 -720 Descending Winnipeg Center